Time;durP1;ratioP1;P1;durP2;ratioP2;P2;SDS_P1;SDS_P2;PMS_P1;PMS_P2;Temp;Humidity;BMP_temperature;BMP_pressure;BME280_temperature;BME280_humidity;BME280_pressure;Samples;Min_cycle;Max_cycle;Signal;HPM_P1;HPM_P2
2022/07/08 00:01:09;;;;;;;;;;;;;;;15.58;82.76;99353.03;4722139;30;20299;-90
2022/07/08 00:03:39;;;;;;;;;;;;;;;15.58;82.35;99361.19;4692746;30;20388;-89
2022/07/08 00:10:34;;;;;;;;;;;;;;;15.41;82.79;99358.69;4737228;30;19948;-88
2022/07/08 00:13:02;;;;;;;;;;;;;;;15.38;83.18;99353.78;4707214;30;20433;-89
2022/07/08 00:15:34;;;;;;;;;;;;;;;15.39;83.18;99347.25;4707499;30;20298;-90
2022/07/08 00:18:03;;;;;;;;;;;;;;;15.36;83.16;99350.50;4721213;30;20360;-89
2022/07/08 00:20:34;;;;;;;;;;;;;;;15.36;82.98;99347.78;4692219;30;19922;-89
2022/07/08 00:23:05;;;;;;;;;;;;;;;15.35;82.94;99343.44;4736664;30;20379;-90
2022/07/08 00:25:36;;;;;;;;;;;;;;;15.36;82.85;99340.44;4722035;30;19922;-89
2022/07/08 00:28:06;;;;;;;;;;;;;;;15.34;82.78;99339.09;4722850;30;20444;-90
2022/07/08 00:30:37;;;;;;;;;;;;;;;15.30;82.83;99340.72;4738200;30;20367;-89
2022/07/08 00:33:08;;;;;;;;;;;;;;;15.30;82.77;99346.16;4737101;30;20355;-92
2022/07/08 00:35:37;;;;;;;;;;;;;;;15.30;82.68;99346.16;4735466;30;20447;-89
2022/07/08 00:42:31;;;;;;;;;;;;;;;15.23;83.52;99342.88;4736467;30;19925;-90
2022/07/08 00:45:16;;;;;;;;;;;;;;;15.25;83.51;99346.13;4734985;30;20466;-89
2022/07/08 00:52:21;;;;;;;;;;;;;;;15.45;83.22;99340.75;4736407;30;20340;-89
2022/07/08 00:54:54;;;;;;;;;;;;;;;15.54;83.02;99346.47;4736089;30;20367;-90
2022/07/08 01:01:41;;;;;;;;;;;;;;;15.78;82.47;99349.56;4735921;30;19925;-91
2022/07/08 01:04:23;;;;;;;;;;;;;;;15.82;82.04;99350.63;4736184;30;19992;-90
2022/07/08 01:11:14;;;;;;;;;;;;;;;15.88;81.99;99352.28;4736494;30;19925;-91
2022/07/08 01:13:43;;;;;;;;;;;;;;;15.92;82.13;99353.34;4736700;30;20440;-89
2022/07/08 01:16:14;;;;;;;;;;;;;;;15.97;82.12;99356.09;4734662;30;20375;-92
2022/07/08 01:18:45;;;;;;;;;;;;;;;16.02;82.04;99358.81;4738195;30;20359;-91
2022/07/08 01:21:16;;;;;;;;;;;;;;;16.01;81.94;99357.19;4744602;30;19961;-92
2022/07/08 01:23:46;;;;;;;;;;;;;;;16.01;81.85;99353.66;4730968;30;19930;-93
2022/07/08 01:30:49;;;;;;;;;;;;;;;16.01;81.12;99362.63;4758153;30;19933;-88
2022/07/08 01:33:18;;;;;;;;;;;;;;;16.01;81.17;99368.06;4741056;30;19954;-91
2022/07/08 01:35:47;;;;;;;;;;;;;;;16.04;80.92;99370.25;4723263;30;20343;-90
2022/07/08 01:38:19;;;;;;;;;;;;;;;16.04;80.77;99380.31;4692130;30;20461;-90
2022/07/08 01:40:50;;;;;;;;;;;;;;;16.04;80.97;99372.97;4704967;30;20272;-92
2022/07/08 01:43:36;;;;;;;;;;;;;;;16.09;81.03;99380.34;4720096;30;20355;-92
2022/07/08 01:46:21;;;;;;;;;;;;;;;16.08;81.23;99375.97;4720760;30;20445;-92
2022/07/08 01:48:49;;;;;;;;;;;;;;;16.08;81.06;99369.69;4734687;30;20282;-91
2022/07/08 01:51:26;;;;;;;;;;;;;;;16.10;81.18;99370.25;4720515;30;19984;-91
2022/07/08 01:53:56;;;;;;;;;;;;;;;16.12;81.26;99378.97;4735494;30;20363;-89
2022/07/08 01:56:24;;;;;;;;;;;;;;;16.14;81.12;99371.34;4735721;30;20375;-90
2022/07/08 01:58:53;;;;;;;;;;;;;;;16.15;80.95;99371.06;4705770;30;19926;-91
2022/07/08 02:01:36;;;;;;;;;;;;;;;16.12;80.71;99370.81;4736639;30;20355;-90
2022/07/08 02:04:04;;;;;;;;;;;;;;;16.07;81.01;99368.09;4736086;30;20371;-91
2022/07/08 02:06:35;;;;;;;;;;;;;;;16.09;80.96;99365.91;4735957;30;20365;-91
2022/07/08 02:09:03;;;;;;;;;;;;;;;16.00;80.36;99366.47;4721440;30;20337;-91
2022/07/08 02:14:23;;;;;;;;;;;;;;;16.00;80.77;99366.47;4757844;30;19911;-92
2022/07/08 02:21:13;;;;;;;;;;;;;;;16.07;80.44;99382.50;4749773;30;19999;-87
2022/07/08 02:23:41;;;;;;;;;;;;;;;16.08;80.42;99383.31;4735297;30;20410;-87
2022/07/08 02:26:18;;;;;;;;;;;;;;;16.10;80.41;99383.88;4706117;30;20378;-88
2022/07/08 02:28:47;;;;;;;;;;;;;;;16.10;80.54;99381.94;4704913;30;20264;-87
2022/07/08 02:31:21;;;;;;;;;;;;;;;16.12;80.28;99387.13;4719230;30;20298;-87
2022/07/08 02:33:49;;;;;;;;;;;;;;;16.11;80.20;99385.50;4733611;30;20339;-88
2022/07/08 02:36:18;;;;;;;;;;;;;;;16.06;80.43;99383.59;4704882;30;19922;-87
2022/07/08 02:39:06;;;;;;;;;;;;;;;16.00;80.76;99392.84;4698693;30;19981;-88
2022/07/08 02:41:37;;;;;;;;;;;;;;;15.97;80.81;99393.38;4684286;30;20290;-89
2022/07/08 02:44:06;;;;;;;;;;;;;;;15.95;80.72;99395.56;4698436;30;20357;-88
2022/07/08 02:46:37;;;;;;;;;;;;;;;16.00;80.80;99404.56;4698090;30;20397;-88
2022/07/08 02:49:10;;;;;;;;;;;;;;;16.07;80.62;99411.63;4697897;30;20379;-88
2022/07/08 02:51:42;;;;;;;;;;;;;;;16.18;80.46;99413.25;4698238;30;20388;-87
2022/07/08 02:54:10;;;;;;;;;;;;;;;16.25;80.40;99420.09;4697589;30;20509;-88
2022/07/08 02:56:40;;;;;;;;;;;;;;;16.30;80.04;99413.81;4698059;30;20364;-88
2022/07/08 02:59:09;;;;;;;;;;;;;;;16.37;79.94;99416.28;4697788;30;20388;-88
2022/07/08 03:01:38;;;;;;;;;;;;;;;16.44;79.86;99419.56;4697477;30;20398;-87
2022/07/08 03:04:09;;;;;;;;;;;;;;;16.49;79.25;99424.19;4697877;30;20327;-89
2022/07/08 03:10:55;;;;;;;;;;;;;;;16.47;78.49;99424.44;4701080;30;19925;-90
2022/07/08 03:13:23;;;;;;;;;;;;;;;16.50;78.48;99428.53;4701208;30;20446;-90
2022/07/08 03:15:54;;;;;;;;;;;;;;;16.45;78.35;99432.88;4712770;30;20352;-88
2022/07/08 03:21:43;;;;;;;;;;;;;;;16.67;78.41;99445.41;4737261;30;20347;-89
2022/07/08 03:24:12;;;;;;;;;;;;;;;16.81;78.01;99441.09;4738061;30;20430;-87
2022/07/08 03:31:10;;;;;;;;;;;;;;;17.00;77.04;99452.22;4737218;30;19925;-88
2022/07/08 03:33:40;;;;;;;;;;;;;;;16.95;76.70;99448.69;4737306;30;20378;-88
2022/07/08 03:36:15;;;;;;;;;;;;;;;16.96;76.66;99455.75;4737672;30;20367;-88
2022/07/08 03:38:43;;;;;;;;;;;;;;;17.05;76.66;99454.94;4736665;30;20375;-87
2022/07/08 03:41:20;;;;;;;;;;;;;;;17.16;76.28;99454.91;4737157;30;20398;-89
2022/07/08 03:43:52;;;;;;;;;;;;;;;17.29;76.25;99455.16;4721895;30;19923;-88
2022/07/08 03:46:20;;;;;;;;;;;;;;;17.42;75.74;99452.91;4736597;30;20378;-89
2022/07/08 03:48:51;;;;;;;;;;;;;;;17.35;74.81;99458.66;4736852;30;20359;-88
2022/07/08 03:51:23;;;;;;;;;;;;;;;17.27;74.57;99453.81;4737229;30;20358;-88
2022/07/08 03:53:52;;;;;;;;;;;;;;;17.36;74.96;99445.84;4737495;30;20495;-89
2022/07/08 03:56:29;;;;;;;;;;;;;;;17.44;74.82;99448.00;4726205;30;19922;-88
2022/07/08 03:59:00;;;;;;;;;;;;;;;17.58;74.41;99462.69;4742177;30;19964;-90
2022/07/08 04:01:31;;;;;;;;;;;;;;;17.70;73.96;99462.38;4724012;30;20290;-87
2022/07/08 04:04:04;;;;;;;;;;;;;;;17.69;73.79;99455.25;4722620;30;20434;-89
2022/07/08 04:06:33;;;;;;;;;;;;;;;17.78;74.19;99459.03;4723041;30;20317;-93
2022/07/08 04:09:11;;;;;;;;;;;;;;;18.03;73.71;99466.31;4738948;30;19922;-90
2022/07/08 04:11:47;;;;;;;;;;;;;;;17.93;72.74;99466.38;4738774;30;19946;-86
2022/07/08 04:14:17;;;;;;;;;;;;;;;17.86;72.68;99460.38;4708517;30;19927;-89
2022/07/08 04:21:10;;;;;;;;;;;;;;;17.96;72.43;99460.34;4737556;30;19996;-89
2022/07/08 04:23:41;;;;;;;;;;;;;;;18.18;71.44;99459.94;4736605;30;19923;-94
2022/07/08 04:26:11;;;;;;;;;;;;;;;18.44;71.27;99457.81;4707435;30;20295;-88
2022/07/08 04:28:44;;;;;;;;;;;;;;;18.72;70.42;99471.81;4737589;30;20367;-89
2022/07/08 04:31:12;;;;;;;;;;;;;;;18.66;70.38;99464.72;4722446;30;20359;-89
2022/07/08 04:33:46;;;;;;;;;;;;;;;18.57;71.01;99464.53;4738662;30;20363;-92
2022/07/08 04:36:24;;;;;;;;;;;;;;;18.42;70.97;99470.94;4725206;30;20362;-87
2022/07/08 04:38:54;;;;;;;;;;;;;;;18.11;71.15;99465.69;4738832;30;20413;-90
2022/07/08 04:41:23;;;;;;;;;;;;;;;17.98;72.51;99469.06;4737655;30;20534;-88
2022/07/08 04:43:53;;;;;;;;;;;;;;;17.98;72.81;99474.53;4721376;30;20351;-89
2022/07/08 04:50:33;;;;;;;;;;;;;;;18.10;72.18;99447.66;4739179;30;19929;-90
2022/07/08 04:53:06;;;;;;;;;;;;;;;18.32;70.97;99471.03;4727200;30;20422;-90
2022/07/08 04:55:36;;;;;;;;;;;;;;;18.34;70.76;99461.44;4748604;30;19923;-92
2022/07/08 05:02:36;;;;;;;;;;;;;;;19.05;69.68;99457.28;4750980;30;19929;-87
2022/07/08 05:05:04;;;;;;;;;;;;;;;19.20;68.46;99455.50;4729778;30;19933;-86
2022/07/08 05:11:51;;;;;;;;;;;;;;;19.75;64.39;99464.19;4744659;30;19945;-86
2022/07/08 05:14:20;;;;;;;;;;;;;;;19.94;63.40;99464.19;4720590;30;20394;-87
2022/07/08 05:21:15;;;;;;;;;;;;;;;19.99;62.49;99466.03;4738115;30;20416;-90
2022/07/08 05:23:48;;;;;;;;;;;;;;;19.67;62.41;99468.38;4736554;30;19926;-91
2022/07/08 05:30:53;;;;;;;;;;;;;;;19.03;65.18;99470.44;4737739;30;20439;-91
2022/07/08 05:33:37;;;;;;;;;;;;;;;18.84;66.24;99470.34;4724433;30;20333;-93
2022/07/08 05:36:15;;;;;;;;;;;;;;;18.70;67.08;99474.00;4722954;30;20312;-93
2022/07/08 05:38:47;;;;;;;;;;;;;;;18.74;67.61;99473.16;4724170;30;20269;-90
2022/07/08 05:41:25;;;;;;;;;;;;;;;18.92;67.34;99476.31;4715607;30;20378;-91
2022/07/08 05:44:12;;;;;;;;;;;;;;;18.97;67.23;99474.31;4714061;30;20470;-92
2022/07/08 05:51:12;;;;;;;;;;;;;;;19.01;67.31;99485.50;4737517;30;20278;-91
2022/07/08 05:53:47;;;;;;;;;;;;;;;19.11;67.13;99490.06;4723416;30;20343;-94
2022/07/08 05:56:23;;;;;;;;;;;;;;;19.19;65.67;99489.41;4699903;30;19922;-93
2022/07/08 05:59:08;;;;;;;;;;;;;;;19.53;63.99;99488.50;4709860;30;19923;-93
2022/07/08 06:01:42;;;;;;;;;;;;;;;19.87;62.04;99485.63;4696742;30;19923;-92
2022/07/08 06:04:25;;;;;;;;;;;;;;;20.16;61.69;99491.00;4722926;30;19926;-92
2022/07/08 06:11:34;;;;;;;;;;;;;;;21.23;58.98;99490.38;4740560;30;20397;-95
2022/07/08 06:14:10;;;;;;;;;;;;;;;21.40;57.82;99488.69;4709302;30;19929;-94
2022/07/08 06:16:48;;;;;;;;;;;;;;;21.06;58.02;99493.69;4712536;30;19926;-93
2022/07/08 06:19:18;;;;;;;;;;;;;;;20.89;57.65;99495.09;4709854;30;20228;-92
2022/07/08 06:21:53;;;;;;;;;;;;;;;20.98;57.02;99498.75;4696936;30;20430;-92
2022/07/08 06:24:24;;;;;;;;;;;;;;;21.07;56.89;99506.31;4710109;30;20394;-92
2022/07/08 06:31:30;;;;;;;;;;;;;;;20.67;57.11;99508.63;4746789;30;19958;-91
2022/07/08 06:34:04;;;;;;;;;;;;;;;20.45;57.54;99511.94;4746212;30;19950;-94
2022/07/08 06:41:03;;;;;;;;;;;;;;;19.89;57.02;99499.84;4751784;30;19921;-91
2022/07/08 06:43:44;;;;;;;;;;;;;;;19.76;57.62;99504.13;4752773;30;19910;-93
2022/07/08 06:50:46;;;;;;;;;;;;;;;19.70;57.55;99502.56;4739904;30;20364;-92
2022/07/08 06:53:19;;;;;;;;;;;;;;;19.70;57.73;99513.53;4696653;30;19945;-90
2022/07/08 06:55:51;;;;;;;;;;;;;;;20.02;57.67;99514.75;4724710;30;20299;-92
2022/07/08 06:58:23;;;;;;;;;;;;;;;20.53;56.42;99508.53;4710619;30;19922;-90
2022/07/08 07:00:52;;;;;;;;;;;;;;;20.64;56.56;99509.22;4710632;30;20248;-90
2022/07/08 07:03:21;;;;;;;;;;;;;;;20.92;56.51;99512.88;4741108;30;20061;-89
2022/07/08 07:05:52;;;;;;;;;;;;;;;21.42;55.30;99507.56;4725044;30;20351;-91
2022/07/08 07:08:27;;;;;;;;;;;;;;;22.07;53.82;99507.31;4730266;30;20395;-94
2022/07/08 07:14:17;;;;;;;;;;;;;;;22.43;52.69;99506.56;4716726;30;20425;-93
2022/07/08 07:21:18;;;;;;;;;;;;;;;22.35;51.94;99499.03;4747974;30;19965;-93
2022/07/08 07:24:08;;;;;;;;;;;;;;;22.54;50.15;99498.88;4706194;30;19948;-94
2022/07/08 07:31:10;;;;;;;;;;;;;;;22.84;48.75;99494.56;4747999;30;20323;-94
2022/07/08 07:33:54;;;;;;;;;;;;;;;22.46;49.37;99502.38;4732777;30;19980;-94
2022/07/08 07:40:55;;;;;;;;;;;;;;;23.71;48.18;99507.94;4758329;30;19929;-95
2022/07/08 07:43:25;;;;;;;;;;;;;;;23.04;47.62;99508.94;4759287;30;19915;-96
2022/07/08 07:46:01;;;;;;;;;;;;;;;22.38;48.83;99506.66;4725339;30;19923;-95
2022/07/08 07:48:33;;;;;;;;;;;;;;;22.10;50.15;99508.66;4710043;30;20410;-95
2022/07/08 08:00:09;;;;;;;;;;;;;;;21.78;52.09;99506.88;4851545;24;19922;-94
2022/07/08 08:03:22;;;;;;;;;;;;;;;22.29;51.05;99516.78;4744953;30;20028;-96
2022/07/08 08:10:39;;;;;;;;;;;;;;;23.84;47.41;99512.53;4717442;30;20004;-96
2022/07/08 08:13:45;;;;;;;;;;;;;;;23.52;46.30;99509.03;4697496;30;20271;-96
2022/07/08 08:20:52;;;;;;;;;;;;;;;23.53;46.84;99501.56;4710601;30;20419;-96
2022/07/08 08:23:46;;;;;;;;;;;;;;;23.52;46.79;99508.19;4674602;30;19962;-94
2022/07/08 08:30:53;;;;;;;;;;;;;;;23.44;45.86;99503.47;4714468;30;19919;-96
2022/07/08 08:34:00;;;;;;;;;;;;;;;23.25;46.29;99499.03;4960744;24;20386;-94
2022/07/08 08:36:46;;;;;;;;;;;;;;;24.22;45.32;99506.44;4882418;24;19934;-96
2022/07/08 08:39:31;;;;;;;;;;;;;;;25.06;44.30;99507.03;4746300;30;19922;-95
2022/07/08 08:42:16;;;;;;;;;;;;;;;25.48;42.99;99496.22;4758513;24;19917;-95
2022/07/08 08:44:52;;;;;;;;;;;;;;;25.77;42.46;99500.94;4731562;30;20359;-96
2022/07/08 08:52:02;;;;;;;;;;;;;;;24.43;44.52;99512.13;4758080;30;19922;-95
2022/07/08 08:54:51;;;;;;;;;;;;;;;24.20;45.27;99505.94;4717112;30;19962;-95
2022/07/08 08:58:01;;;;;;;;;;;;;;;24.84;43.77;99511.66;4757593;24;19970;-96
2022/07/08 09:01:32;;;;;;;;;;;;;;;25.58;43.28;99517.94;4740703;30;19914;-95
2022/07/08 09:04:21;;;;;;;;;;;;;;;25.74;41.02;99518.19;4704823;30;19922;-94
2022/07/08 09:06:55;;;;;;;;;;;;;;;24.84;42.01;99519.13;4714962;30;20315;-89
2022/07/08 09:09:41;;;;;;;;;;;;;;;25.47;42.69;99522.19;4756004;30;20347;-92
2022/07/08 09:12:23;;;;;;;;;;;;;;;25.54;43.23;99524.47;4711683;30;20337;-86
2022/07/08 09:14:52;;;;;;;;;;;;;;;25.57;42.52;99529.31;4738695;30;20319;-89
2022/07/08 09:21:42;;;;;;;;;;;;;;;24.52;43.58;99531.47;4738208;30;19968;-92
2022/07/08 09:24:20;;;;;;;;;;;;;;;24.53;44.63;99522.06;4721767;30;19933;-89
2022/07/08 09:31:18;;;;;;;;;;;;;;;24.30;43.99;99519.41;4740019;30;19929;-93
2022/07/08 09:33:53;;;;;;;;;;;;;;;24.16;44.40;99522.34;4708116;30;20351;-90
2022/07/08 09:40:58;;;;;;;;;;;;;;;24.70;43.60;99524.00;4745304;30;19975;-88
2022/07/08 09:43:28;;;;;;;;;;;;;;;24.65;42.62;99525.78;4705765;30;20306;-91
2022/07/08 09:46:07;;;;;;;;;;;;;;;24.34;43.43;99523.16;4706340;30;20339;-89
2022/07/08 09:48:36;;;;;;;;;;;;;;;24.38;43.24;99509.53;4720621;30;20406;-91
2022/07/08 09:51:07;;;;;;;;;;;;;;;24.53;43.72;99516.53;4707959;30;19922;-88
2022/07/08 09:53:37;;;;;;;;;;;;;;;24.73;43.52;99515.06;4721686;30;19927;-92
2022/07/08 09:56:11;;;;;;;;;;;;;;;25.03;43.46;99508.50;4724702;30;19923;-92
2022/07/08 09:58:41;;;;;;;;;;;;;;;25.70;42.71;99514.44;4706962;30;19922;-90
2022/07/08 10:01:15;;;;;;;;;;;;;;;26.79;40.95;99510.00;4722176;30;20375;-91
2022/07/08 10:03:48;;;;;;;;;;;;;;;27.90;39.08;99510.19;4720631;30;20373;-89
2022/07/08 10:10:53;;;;;;;;;;;;;;;29.78;35.26;99499.16;4736768;30;19925;-89
2022/07/08 10:13:21;;;;;;;;;;;;;;;29.68;35.26;99506.09;4719677;30;20450;-90
2022/07/08 10:15:50;;;;;;;;;;;;;;;28.75;36.29;99503.63;4736523;30;19922;-89
2022/07/08 10:18:18;;;;;;;;;;;;;;;27.82;35.85;99500.81;4738403;30;19945;-89
2022/07/08 10:20:47;;;;;;;;;;;;;;;27.30;37.47;99491.22;4737889;30;19923;-91
2022/07/08 10:23:25;;;;;;;;;;;;;;;28.49;37.13;99495.75;4710222;30;19926;-89
2022/07/08 10:25:57;;;;;;;;;;;;;;;28.59;36.23;99494.41;4739672;30;20030;-89
2022/07/08 10:32:53;;;;;;;;;;;;;;;29.30;35.78;99490.81;4739836;30;19941;-91
2022/07/08 10:35:29;;;;;;;;;;;;;;;30.57;33.88;99490.56;4725330;30;20507;-91
2022/07/08 10:45:52;;;;;;;;;;;;;;;30.65;33.32;99489.53;4689983;30;20459;-91
2022/07/08 10:52:38;;;;;;;;;;;;;;;28.18;35.79;99493.59;4705013;30;20394;-91
2022/07/08 10:55:11;;;;;;;;;;;;;;;27.95;35.68;99493.28;4690723;30;20264;-91
2022/07/08 11:02:24;;;;;;;;;;;;;;;30.01;32.98;99477.84;4714723;30;19926;-90
2022/07/08 11:05:40;;;;;;;;;;;;;;;28.06;35.48;99481.38;4701445;30;19953;-94
2022/07/08 11:12:40;;;;;;;;;;;;;;;30.68;30.74;99476.84;4703124;30;19985;-92
2022/07/08 11:15:18;;;;;;;;;;;;;;;31.34;30.73;99466.50;4690138;30;20363;-90
2022/07/08 11:26:42;;;;;;;;;;;;;;;27.65;34.63;99479.69;4721481;30;19977;-91
2022/07/08 11:29:17;;;;;;;;;;;;;;;27.84;34.56;99470.78;4726878;30;20374;-90
2022/07/08 11:31:59;;;;;;;;;;;;;;;28.02;34.97;99474.09;4698464;30;19970;-93
2022/07/08 11:34:30;;;;;;;;;;;;;;;29.67;31.63;99457.16;4696367;30;19986;-91
2022/07/08 11:41:39;;;;;;;;;;;;;;;31.83;28.97;99460.13;4727264;30;19925;-87
2022/07/08 11:44:13;;;;;;;;;;;;;;;31.47;30.78;99465.19;4695165;30;20376;-93
2022/07/08 11:51:12;;;;;;;;;;;;;;;29.87;32.77;99462.78;4722795;30;19925;-93
2022/07/08 11:53:43;;;;;;;;;;;;;;;29.95;32.65;99459.00;4720082;30;20287;-90
2022/07/08 11:56:15;;;;;;;;;;;;;;;29.99;32.90;99469.03;4720087;30;20299;-92
2022/07/08 11:58:44;;;;;;;;;;;;;;;30.52;31.90;99463.00;4723379;30;20049;-93
2022/07/08 12:01:15;;;;;;;;;;;;;;;30.88;31.68;99456.16;4713071;30;20368;-91
2022/07/08 12:03:46;;;;;;;;;;;;;;;32.21;29.43;99457.47;4694958;30;20383;-94
2022/07/08 12:06:26;;;;;;;;;;;;;;;32.99;28.76;99455.59;4692920;30;20362;-91
2022/07/08 12:08:58;;;;;;;;;;;;;;;31.41;30.10;99458.28;4722483;30;20451;-93
2022/07/08 12:11:29;;;;;;;;;;;;;;;29.99;32.15;99457.09;4706827;30;20341;-88
2022/07/08 12:13:57;;;;;;;;;;;;;;;28.80;32.80;99466.44;4705348;30;20347;-88
2022/07/08 12:16:28;;;;;;;;;;;;;;;27.91;33.76;99456.34;4722371;30;20389;-92
2022/07/08 12:19:00;;;;;;;;;;;;;;;27.37;35.12;99451.81;4708841;30;20386;-93
2022/07/08 12:21:46;;;;;;;;;;;;;;;26.96;35.95;99456.38;4722791;30;19930;-92
2022/07/08 12:24:29;;;;;;;;;;;;;;;26.87;36.53;99456.47;4712938;30;20367;-93
2022/07/08 12:31:40;;;;;;;;;;;;;;;31.43;29.85;99453.16;4722565;30;19969;-94
2022/07/08 12:34:18;;;;;;;;;;;;;;;33.11;28.01;99436.94;4735731;30;20458;-93
2022/07/08 12:41:23;;;;;;;;;;;;;;;33.95;26.04;99437.94;4723476;30;20051;-90
2022/07/08 12:43:57;;;;;;;;;;;;;;;34.57;25.88;99431.44;4722837;30;20399;-91
2022/07/08 12:58:05;;;;;;;;;;;;;;;33.08;25.42;99427.34;4702821;30;20364;-90
2022/07/08 13:00:43;;;;;;;;;;;;;;;31.53;27.60;99421.84;4687273;30;20339;-91
2022/07/08 13:03:21;;;;;;;;;;;;;;;29.91;29.67;99424.75;4689307;30;20363;-94
2022/07/08 13:05:59;;;;;;;;;;;;;;;30.26;29.98;99429.44;4663395;30;20496;-93
2022/07/08 13:08:40;;;;;;;;;;;;;;;31.40;28.93;99420.44;4690980;30;20275;-92
2022/07/08 13:11:12;;;;;;;;;;;;;;;30.68;29.05;99413.59;4700445;30;20335;-92
2022/07/08 13:13:49;;;;;;;;;;;;;;;29.44;30.27;99420.84;4673942;30;20358;-91
2022/07/08 13:16:25;;;;;;;;;;;;;;;28.68;31.83;99412.56;4687043;30;20251;-92
2022/07/08 13:19:05;;;;;;;;;;;;;;;28.26;32.01;99420.53;4688535;30;19923;-93
2022/07/08 13:21:36;;;;;;;;;;;;;;;28.23;32.44;99421.22;4661018;30;19934;-91
2022/07/08 13:24:07;;;;;;;;;;;;;;;30.08;30.39;99413.19;4688722;30;20387;-91
2022/07/08 13:31:04;;;;;;;;;;;;;;;34.61;25.09;99403.44;4714910;30;19986;-93
2022/07/08 13:33:45;;;;;;;;;;;;;;;35.63;24.05;99397.47;4695382;30;20462;-93
2022/07/08 13:36:25;;;;;;;;;;;;;;;35.49;23.80;99395.47;4718800;30;20422;-90
2022/07/08 13:38:58;;;;;;;;;;;;;;;35.23;23.97;99403.13;4692086;30;20345;-93
2022/07/08 13:41:34;;;;;;;;;;;;;;;35.49;23.78;99392.66;4720075;30;19938;-92
2022/07/08 13:44:08;;;;;;;;;;;;;;;34.92;23.92;99388.66;4707294;30;19923;-94
2022/07/08 13:51:08;;;;;;;;;;;;;;;29.63;29.60;99386.75;4739464;30;19929;-92
2022/07/08 13:53:39;;;;;;;;;;;;;;;29.25;30.49;99379.13;4725865;30;20066;-92
2022/07/08 13:56:26;;;;;;;;;;;;;;;29.83;29.71;99372.88;4710360;30;19915;-92
2022/07/08 13:59:16;;;;;;;;;;;;;;;29.61;30.24;99372.41;4681589;30;19950;-95
2022/07/08 14:01:57;;;;;;;;;;;;;;;31.89;26.93;99369.31;4760602;24;20452;-94
2022/07/08 14:04:27;;;;;;;;;;;;;;;33.41;25.54;99364.88;4685212;30;19923;-92
2022/07/08 14:11:49;;;;;;;;;;;;;;;33.74;24.82;99357.47;4720035;30;20266;-93
2022/07/08 14:14:26;;;;;;;;;;;;;;;33.29;25.08;99356.78;4695282;30;20326;-94
2022/07/08 14:21:31;;;;;;;;;;;;;;;30.27;29.08;99351.16;4709764;30;19919;-93
2022/07/08 14:24:05;;;;;;;;;;;;;;;29.34;30.56;99352.72;4700413;30;19917;-91
2022/07/08 14:31:08;;;;;;;;;;;;;;;29.87;30.21;99348.75;4709494;30;19930;-91
2022/07/08 14:33:41;;;;;;;;;;;;;;;31.89;27.52;99347.00;4669691;30;19946;-92
2022/07/08 14:36:10;;;;;;;;;;;;;;;33.26;26.04;99351.97;4690254;30;19982;-92
2022/07/08 14:38:43;;;;;;;;;;;;;;;34.41;24.33;99346.94;4705654;30;20273;-92
2022/07/08 14:41:18;;;;;;;;;;;;;;;35.08;23.55;99337.00;4687323;30;19923;-92
2022/07/08 14:43:49;;;;;;;;;;;;;;;34.85;22.89;99337.41;4699598;30;20376;-90
2022/07/08 14:46:19;;;;;;;;;;;;;;;34.86;23.04;99336.19;4714074;30;20268;-91
2022/07/08 14:48:48;;;;;;;;;;;;;;;34.70;22.40;99334.59;4699344;30;20359;-93
2022/07/08 14:51:23;;;;;;;;;;;;;;;34.98;22.22;99333.00;4700669;30;19962;-90
2022/07/08 14:53:51;;;;;;;;;;;;;;;35.60;22.15;99334.50;4700263;30;20395;-90
2022/07/08 14:56:21;;;;;;;;;;;;;;;36.00;22.01;99332.34;4700781;30;20391;-91
2022/07/08 14:58:58;;;;;;;;;;;;;;;36.34;21.75;99326.97;4700115;30;20435;-92
2022/07/08 15:01:29;;;;;;;;;;;;;;;36.75;22.02;99337.56;4674927;30;19924;-93
2022/07/08 15:04:00;;;;;;;;;;;;;;;36.70;22.14;99340.81;4708542;30;20383;-93
2022/07/08 15:06:34;;;;;;;;;;;;;;;36.21;22.65;99337.91;4694157;30;19950;-93
2022/07/08 15:09:04;;;;;;;;;;;;;;;36.35;21.86;99333.41;4695373;30;20363;-93
2022/07/08 15:11:35;;;;;;;;;;;;;;;35.85;22.28;99334.44;4705923;30;20379;-89
2022/07/08 15:14:05;;;;;;;;;;;;;;;35.79;22.29;99330.44;4706077;30;20375;-92
2022/07/08 15:16:36;;;;;;;;;;;;;;;35.80;22.27;99330.06;4692462;30;19977;-90
2022/07/08 15:19:14;;;;;;;;;;;;;;;35.43;22.49;99332.56;4706285;30;20376;-90
2022/07/08 15:21:47;;;;;;;;;;;;;;;35.47;22.59;99328.50;4692812;30;20021;-91
2022/07/08 15:24:20;;;;;;;;;;;;;;;35.45;22.23;99322.53;4695529;30;20237;-91
2022/07/08 15:26:49;;;;;;;;;;;;;;;35.02;22.23;99319.78;4724196;30;19923;-90
2022/07/08 15:29:18;;;;;;;;;;;;;;;34.67;23.05;99324.19;4707908;30;20279;-89
2022/07/08 15:32:05;;;;;;;;;;;;;;;35.18;22.84;99319.38;4701749;30;19933;-90
2022/07/08 15:34:43;;;;;;;;;;;;;;;35.05;22.47;99320.97;4682252;30;20323;-90
2022/07/08 15:41:38;;;;;;;;;;;;;;;34.66;23.29;99324.56;4721382;30;20287;-89
2022/07/08 15:44:07;;;;;;;;;;;;;;;34.48;23.41;99328.13;4705828;30;20370;-88
2022/07/08 15:51:15;;;;;;;;;;;;;;;30.98;27.36;99343.28;4723565;30;19919;-92
2022/07/08 15:53:45;;;;;;;;;;;;;;;31.39;27.06;99349.09;4708275;30;20426;-91
2022/07/08 15:56:14;;;;;;;;;;;;;;;32.60;25.82;99346.22;4706978;30;19926;-90
2022/07/08 15:58:45;;;;;;;;;;;;;;;33.44;25.19;99360.47;4721196;30;19923;-92
2022/07/08 16:01:20;;;;;;;;;;;;;;;33.81;24.72;99353.94;4693577;30;19922;-91
2022/07/08 16:03:49;;;;;;;;;;;;;;;34.21;24.12;99360.47;4717272;30;20367;-89
2022/07/08 16:06:17;;;;;;;;;;;;;;;34.53;23.90;99357.75;4713431;30;20433;-90
2022/07/08 16:08:59;;;;;;;;;;;;;;;33.09;25.33;99361.84;4709070;30;19927;-86
2022/07/08 16:11:27;;;;;;;;;;;;;;;30.90;27.56;99363.84;4703876;30;20375;-90
2022/07/08 16:13:56;;;;;;;;;;;;;;;29.64;28.46;99371.66;4720858;30;20457;-85
2022/07/08 16:16:25;;;;;;;;;;;;;;;28.83;29.47;99358.22;4704045;30;20366;-86
2022/07/08 16:18:53;;;;;;;;;;;;;;;28.15;30.34;99369.44;4660756;30;20376;-87
2022/07/08 16:21:23;;;;;;;;;;;;;;;28.00;30.48;99362.69;4705637;30;20359;-89
2022/07/08 16:23:55;;;;;;;;;;;;;;;27.90;30.34;99365.97;4708064;30;20343;-92
2022/07/08 16:26:32;;;;;;;;;;;;;;;27.65;30.69;99358.50;4694174;30;20346;-92
2022/07/08 16:29:01;;;;;;;;;;;;;;;27.13;31.70;99361.19;4706392;30;20370;-88
2022/07/08 16:31:36;;;;;;;;;;;;;;;27.05;31.98;99365.69;4713698;30;20008;-89
2022/07/08 16:34:05;;;;;;;;;;;;;;;27.00;32.54;99363.97;4706114;30;20398;-88
2022/07/08 16:36:41;;;;;;;;;;;;;;;26.53;34.32;99366.31;4692931;30;20348;-83
2022/07/08 16:39:09;;;;;;;;;;;;;;;25.90;35.53;99369.97;4707454;30;19923;-86
2022/07/08 16:41:40;;;;;;;;;;;;;;;25.66;36.36;99373.38;4730514;30;19930;-84
2022/07/08 16:44:11;;;;;;;;;;;;;;;25.30;37.18;99371.19;4726137;30;19950;-88
2022/07/08 16:51:10;;;;;;;;;;;;;;;24.71;39.11;99369.13;4721762;30;19938;-86
2022/07/08 16:53:40;;;;;;;;;;;;;;;24.60;39.31;99368.69;4703988;30;20483;-88
2022/07/08 16:56:11;;;;;;;;;;;;;;;24.50;39.96;99373.75;4677210;30;20379;-87
2022/07/08 17:01:48;;;;;;;;;;;;;;;24.17;40.25;99361.28;4994339;24;19922;-87
2022/07/08 17:04:18;;;;;;;;;;;;;;;24.18;40.56;99351.88;4724478;30;20374;-88
2022/07/08 17:11:22;;;;;;;;;;;;;;;23.89;41.73;99357.25;4754956;30;19944;-88
2022/07/08 17:13:53;;;;;;;;;;;;;;;23.79;42.08;99361.94;4723795;30;20427;-91
2022/07/08 17:16:28;;;;;;;;;;;;;;;23.73;41.87;99356.94;4779220;24;19972;-87
2022/07/08 17:19:02;;;;;;;;;;;;;;;23.68;42.63;99355.09;4706037;30;20366;-88
2022/07/08 17:21:37;;;;;;;;;;;;;;;23.62;42.80;99350.88;4691728;30;20325;-87
2022/07/08 17:24:07;;;;;;;;;;;;;;;23.55;42.90;99345.06;4705592;30;20355;-87
2022/07/08 17:31:11;;;;;;;;;;;;;;;23.34;43.27;99347.59;4744978;30;19968;-85
2022/07/08 17:33:43;;;;;;;;;;;;;;;23.26;43.82;99343.69;4734662;30;20383;-87
2022/07/08 17:36:18;;;;;;;;;;;;;;;23.21;43.68;99348.53;4720010;30;19922;-88
2022/07/08 17:43:10;;;;;;;;;;;;;;;22.76;45.54;99346.72;4736173;30;19929;-89
2022/07/08 17:45:39;;;;;;;;;;;;;;;22.64;45.80;99343.78;4736407;30;20370;-86
2022/07/08 17:48:11;;;;;;;;;;;;;;;22.65;45.43;99351.69;4736557;30;20375;-90
2022/07/08 17:50:40;;;;;;;;;;;;;;;22.64;45.74;99360.28;4721688;30;20375;-91
2022/07/08 17:53:12;;;;;;;;;;;;;;;22.55;46.13;99353.91;4737310;30;19922;-90
2022/07/08 17:55:43;;;;;;;;;;;;;;;22.47;46.52;99361.00;4707195;30;20256;-93